createdAt,value
2019-05-05T00:00:55.083Z,93834.83
2019-05-05T00:03:44.449Z,93832.28
2019-05-05T00:06:15.772Z,93830.60
2019-05-05T00:08:47.355Z,93837.59
2019-05-05T00:11:37.200Z,93833.98
2019-05-05T00:14:39.832Z,93831.69
2019-05-05T00:17:18.351Z,93828.63
2019-05-05T00:19:49.734Z,93826.59
2019-05-05T00:22:21.384Z,93829.03
2019-05-05T00:24:54.640Z,93825.34
2019-05-05T00:27:26.524Z,93816.81
2019-05-05T00:29:59.446Z,93820.75
2019-05-05T00:32:31.172Z,93821.56
2019-05-05T00:35:04.339Z,93823.41
2019-05-05T00:37:36.279Z,93821.47
2019-05-05T00:40:07.909Z,93814.84
2019-05-05T00:42:39.501Z,93820.03
2019-05-05T00:45:11.476Z,93817.41
2019-05-05T00:48:07.808Z,93818.52
2019-05-05T00:50:39.610Z,93821.47
2019-05-05T00:53:11.319Z,93821.77
2019-05-05T00:55:44.255Z,93812.45
2019-05-05T00:58:15.946Z,93818.27
2019-05-05T01:00:54.853Z,93812.73
2019-05-05T01:03:27.876Z,93812.17
2019-05-05T01:06:15.165Z,93816.93
2019-05-05T01:08:47.222Z,93808.51
2019-05-05T01:11:19.408Z,93804.11
2019-05-05T01:13:51.104Z,93809.17
2019-05-05T01:16:24.770Z,93808.95
2019-05-05T01:18:56.283Z,93808.95
2019-05-05T01:21:28.041Z,93799.04
2019-05-05T01:23:59.800Z,93800.59
2019-05-05T01:26:31.339Z,93807.61
2019-05-05T01:29:05.289Z,93790.31
2019-05-05T01:31:38.601Z,93790.31
2019-05-05T01:34:26.235Z,93793.28
2019-05-05T01:37:06.337Z,93792.89
2019-05-05T01:39:47.143Z,93788.49
2019-05-05T01:42:19.140Z,93790.72
2019-05-05T01:44:50.809Z,93790.53
2019-05-05T01:47:22.440Z,93783.81
2019-05-05T01:49:54.543Z,93787.80
2019-05-05T01:52:26.350Z,93784.25
2019-05-05T01:54:58.074Z,93786.86
2019-05-05T01:57:30.079Z,93788.76
2019-05-05T02:00:04.247Z,93791.53
2019-05-05T02:02:36.509Z,93787.28
2019-05-05T02:05:09.358Z,93786.71
2019-05-05T02:07:41.012Z,93789.77
2019-05-05T02:10:15.274Z,93791.43
2019-05-05T02:12:46.919Z,93796.84
2019-05-05T02:15:18.935Z,93785.26
2019-05-05T02:17:51.600Z,93790.92
2019-05-05T02:21:01.364Z,93784.45
2019-05-05T02:23:35.131Z,93783.66
2019-05-05T02:26:08.150Z,93773.70
2019-05-05T02:28:59.165Z,93775.10
2019-05-05T02:31:55.051Z,93774.44
2019-05-05T02:34:27.467Z,93771.78
2019-05-05T02:37:00.233Z,93767.33
2019-05-05T02:39:35.232Z,93768.06
2019-05-05T02:42:05.944Z,93764.96
2019-05-05T02:44:38.308Z,93755.19
2019-05-05T02:47:30.418Z,93756.78
2019-05-05T02:50:05.452Z,93755.47
2019-05-05T02:52:39.795Z,93760.78
2019-05-05T02:55:14.666Z,93757.38
2019-05-05T02:57:46.921Z,93749.00
2019-05-05T03:00:37.468Z,93754.86
2019-05-05T03:03:09.867Z,93743.17
2019-05-05T03:05:43.479Z,93739.77
2019-05-05T03:08:15.401Z,93735.22
2019-05-05T03:10:47.263Z,93733.35
2019-05-05T03:13:20.162Z,93736.34
2019-05-05T03:15:55.232Z,93733.72
2019-05-05T03:18:27.201Z,93733.47
2019-05-05T03:21:04.475Z,93730.27
2019-05-05T03:23:33.467Z,93726.26
2019-05-05T03:26:05.608Z,93723.59
2019-05-05T03:28:44.407Z,93717.77
2019-05-05T03:31:16.428Z,93717.28
2019-05-05T03:33:48.049Z,93724.67
2019-05-05T03:36:20.392Z,93727.84
2019-05-05T03:38:54.132Z,93722.48
2019-05-05T03:41:34.470Z,93719.05
2019-05-05T03:44:14.957Z,93720.68
2019-05-05T03:46:47.005Z,93711.13
2019-05-05T03:49:19.225Z,93711.92
2019-05-05T03:51:51.113Z,93702.38
2019-05-05T03:54:23.861Z,93707.94
2019-05-05T03:57:11.431Z,93715.95
2019-05-05T03:59:44.430Z,93714.84
2019-05-05T04:02:34.141Z,93718.08
2019-05-05T04:05:25.416Z,93717.51
2019-05-05T04:07:57.455Z,93724.64
2019-05-05T04:10:29.389Z,93733.20
2019-05-05T04:13:04.678Z,93737.19
2019-05-05T04:15:37.892Z,93737.92
2019-05-05T04:18:25.501Z,93728.71
2019-05-05T04:20:57.238Z,93731.09
2019-05-05T04:23:29.158Z,93735.86
2019-05-05T04:26:00.954Z,93751.76
2019-05-05T04:28:34.543Z,93748.86
2019-05-05T04:31:06.337Z,93743.03
2019-05-05T04:33:38.104Z,93757.91
2019-05-05T04:36:09.902Z,93765.03
2019-05-05T04:38:41.338Z,93772.46
2019-05-05T04:41:14.047Z,93764.05
2019-05-05T04:43:45.821Z,93767.45
2019-05-05T04:46:17.304Z,93762.69
2019-05-05T04:49:10.763Z,93752.58
2019-05-05T04:51:50.089Z,93757.34
2019-05-05T04:54:24.454Z,93767.41
2019-05-05T04:56:55.917Z,93760.77
2019-05-05T04:59:27.426Z,93752.82
2019-05-05T05:02:03.994Z,93760.78
2019-05-05T05:04:54.581Z,93760.25
2019-05-05T05:07:27.546Z,93758.35
2019-05-05T05:09:59.204Z,93766.26
2019-05-05T05:12:34.179Z,93773.20
2019-05-05T05:15:06.273Z,93773.52
2019-05-05T05:17:44.498Z,93766.30
2019-05-05T05:20:16.104Z,93771.66
2019-05-05T05:22:47.898Z,93765.55
2019-05-05T05:25:19.262Z,93764.98
2019-05-05T05:27:50.823Z,93761.78
2019-05-05T05:30:24.272Z,93759.14
2019-05-05T05:32:56.027Z,93753.26
2019-05-05T05:35:27.735Z,93752.19
2019-05-05T05:37:59.453Z,93756.92
2019-05-05T05:40:47.793Z,93759.55
2019-05-05T05:43:25.366Z,93770.70
2019-05-05T05:46:04.621Z,93758.98
2019-05-05T05:48:43.464Z,93759.42
2019-05-05T05:51:19.486Z,93762.80
2019-05-05T05:53:51.263Z,93764.02
2019-05-05T05:56:24.972Z,93763.12
2019-05-05T05:58:57.801Z,93758.59
2019-05-05T06:01:29.296Z,93753.75
2019-05-05T06:04:00.955Z,93752.03
2019-05-05T06:06:34.510Z,93741.69
2019-05-05T06:09:06.885Z,93745.48
2019-05-05T06:11:38.864Z,93722.91
2019-05-05T06:14:10.834Z,93720.17
2019-05-05T06:16:44.504Z,93735.55
2019-05-05T06:19:16.101Z,93747.84
2019-05-05T06:21:49.042Z,93757.70
2019-05-05T06:24:20.845Z,93760.28
2019-05-05T06:26:54.716Z,93767.25
2019-05-05T06:29:26.636Z,93767.25
2019-05-05T06:31:58.101Z,93776.36
2019-05-05T06:34:29.716Z,93777.69
2019-05-05T06:37:01.500Z,93789.02
2019-05-05T06:39:33.594Z,93786.28
2019-05-05T06:42:24.551Z,93796.13
2019-05-05T06:45:04.140Z,93787.42
2019-05-05T06:47:39.860Z,93787.91
2019-05-05T06:50:11.619Z,93783.92
2019-05-05T06:52:46.535Z,93772.07
2019-05-05T06:55:16.908Z,93772.84
2019-05-05T06:57:48.727Z,93775.22
2019-05-05T07:00:20.237Z,93780.54
2019-05-05T07:02:53.928Z,93772.67
2019-05-05T07:05:25.553Z,93772.25
2019-05-05T07:07:57.428Z,93780.20
2019-05-05T07:10:33.724Z,93782.25
2019-05-05T07:13:05.264Z,93782.52
2019-05-05T07:15:37.053Z,93790.22
2019-05-05T07:18:09.005Z,93791.28
2019-05-05T07:20:40.682Z,93778.84
2019-05-05T07:23:14.515Z,93785.97
2019-05-05T07:25:46.414Z,93782.66
2019-05-05T07:28:18.106Z,93777.28
2019-05-05T07:30:49.665Z,93787.61
2019-05-05T07:33:21.456Z,93788.80
2019-05-05T07:36:15.113Z,93778.41
2019-05-05T07:38:46.380Z,93775.90
2019-05-05T07:41:19.297Z,93777.61
2019-05-05T07:43:51.084Z,93774.35
2019-05-05T07:46:24.142Z,93780.56
2019-05-05T07:48:56.024Z,93775.74
2019-05-05T07:51:27.951Z,93775.73
2019-05-05T07:53:59.633Z,93767.96
2019-05-05T07:56:31.354Z,93776.53
2019-05-05T07:59:03.834Z,93756.96
2019-05-05T08:01:35.692Z,93762.98
2019-05-05T08:04:07.529Z,93770.02
2019-05-05T08:06:39.029Z,93766.71
2019-05-05T08:09:10.820Z,93764.04
2019-05-05T08:11:44.484Z,93769.06
2019-05-05T08:14:16.249Z,93765.23
2019-05-05T08:17:14.550Z,93774.95
2019-05-05T08:19:54.342Z,93752.66
2019-05-05T08:22:26.256Z,93748.92
2019-05-05T08:25:15.585Z,93759.55
2019-05-05T08:27:53.692Z,93761.30
2019-05-05T08:30:33.527Z,93747.41
2019-05-05T08:33:05.562Z,93772.23
2019-05-05T08:35:37.268Z,93760.89
2019-05-05T08:38:09.079Z,93767.42
2019-05-05T08:40:40.912Z,93761.25
2019-05-05T08:43:13.866Z,93774.80
2019-05-05T08:45:44.746Z,93769.81
2019-05-05T08:48:16.178Z,93760.42
2019-05-05T08:50:48.896Z,93765.94
2019-05-05T08:53:20.795Z,93769.43
2019-05-05T08:55:54.546Z,93769.73
2019-05-05T08:58:25.996Z,93764.92
2019-05-05T09:00:57.661Z,93766.72
2019-05-05T09:03:29.492Z,93763.73
2019-05-05T09:06:00.912Z,93766.87
2019-05-05T09:08:34.557Z,93763.55
2019-05-05T09:11:05.006Z,93762.16
2019-05-05T09:13:36.608Z,93753.18
2019-05-05T09:16:08.284Z,93754.02
2019-05-05T09:18:58.175Z,93757.70
2019-05-05T09:21:29.805Z,93760.09
2019-05-05T09:24:18.181Z,93766.46
2019-05-05T09:26:58.378Z,93754.48
2019-05-05T09:29:34.833Z,93747.91
2019-05-05T09:32:06.783Z,93738.77
2019-05-05T09:34:38.329Z,93734.75
2019-05-05T09:37:10.393Z,93738.16
2019-05-05T09:39:43.685Z,93742.80
2019-05-05T09:42:15.462Z,93734.41
2019-05-05T09:44:47.088Z,93728.45
2019-05-05T09:47:18.755Z,93738.73
2019-05-05T09:49:50.639Z,93734.98
2019-05-05T09:52:24.284Z,93730.53
2019-05-05T09:54:55.695Z,93734.55
2019-05-05T09:57:27.507Z,93738.20
2019-05-05T10:00:13.831Z,93727.16
2019-05-05T10:02:45.030Z,93724.30
2019-05-05T10:05:16.855Z,93711.82
2019-05-05T10:07:49.191Z,93709.78
2019-05-05T10:10:20.951Z,93693.05
2019-05-05T10:12:54.883Z,93692.41
2019-05-05T10:15:26.113Z,93712.91
2019-05-05T10:17:57.935Z,93703.64
2019-05-05T10:20:29.536Z,93703.90
2019-05-05T10:23:01.467Z,93706.17
2019-05-05T10:25:53.968Z,93707.21
2019-05-05T10:28:25.924Z,93691.75
2019-05-05T10:30:57.605Z,93688.56
2019-05-05T10:33:29.908Z,93684.97
2019-05-05T10:36:01.559Z,93683.53
2019-05-05T10:38:34.397Z,93691.82
2019-05-05T10:41:06.421Z,93691.98
2019-05-05T10:43:38.547Z,93697.72
2019-05-05T10:46:10.234Z,93707.91
2019-05-05T10:48:41.791Z,93700.12
2019-05-05T10:51:13.347Z,93699.91
2019-05-05T10:53:45.213Z,93689.14
2019-05-05T10:56:17.408Z,93696.13
2019-05-05T10:58:49.088Z,93701.14
2019-05-05T11:01:20.790Z,93697.70
2019-05-05T11:03:52.588Z,93703.31
2019-05-05T11:06:24.392Z,93700.86
2019-05-05T11:08:56.012Z,93697.16
2019-05-05T11:11:27.761Z,93694.45
2019-05-05T11:14:00.053Z,93691.95
2019-05-05T11:16:31.879Z,93682.98
2019-05-05T11:19:04.348Z,93685.52
2019-05-05T11:21:36.152Z,93688.20
2019-05-05T11:24:08.039Z,93682.04
2019-05-05T11:26:39.919Z,93677.88
2019-05-05T11:29:13.561Z,93682.47
2019-05-05T11:31:45.654Z,93684.37
2019-05-05T11:34:24.773Z,93679.95
2019-05-05T11:37:11.442Z,93687.31
2019-05-05T11:39:44.531Z,93686.69
2019-05-05T11:42:17.270Z,93675.05
2019-05-05T11:44:48.800Z,93677.74
2019-05-05T11:47:21.287Z,93671.62
2019-05-05T11:49:56.197Z,93661.81
2019-05-05T11:52:26.417Z,93659.94
2019-05-05T11:55:08.995Z,93657.58
2019-05-05T11:57:33.442Z,93657.88
2019-05-05T12:00:05.434Z,93642.44
2019-05-05T12:02:37.351Z,93641.69
2019-05-05T12:05:09.077Z,93639.81
2019-05-05T12:07:40.750Z,93635.62
2019-05-05T12:10:31.637Z,93644.40
2019-05-05T12:13:04.431Z,93647.78
2019-05-05T12:15:36.389Z,93646.59
2019-05-05T12:18:08.109Z,93650.18
2019-05-05T12:20:40.539Z,93649.89
2019-05-05T12:23:12.322Z,93644.30
2019-05-05T12:25:59.643Z,93644.79
2019-05-05T12:28:39.142Z,93645.48
2019-05-05T12:31:15.871Z,93639.24
2019-05-05T12:33:47.623Z,93641.05
2019-05-05T12:36:20.363Z,93641.09
2019-05-05T12:38:54.408Z,93646.45
2019-05-05T12:41:25.575Z,93643.21
2019-05-05T12:43:57.262Z,93636.50
2019-05-05T12:46:50.640Z,93645.67
2019-05-05T12:49:25.256Z,93641.66
2019-05-05T12:51:55.840Z,93642.80
2019-05-05T12:54:27.454Z,93642.09
2019-05-05T12:56:59.298Z,93638.30
2019-05-05T12:59:31.144Z,93634.50
2019-05-05T13:02:03.801Z,93641.97
2019-05-05T13:04:35.728Z,93641.94
2019-05-05T13:07:08.281Z,93634.00
2019-05-05T13:09:40.228Z,93635.38
2019-05-05T13:12:12.095Z,93624.41
2019-05-05T13:14:44.259Z,93632.48
2019-05-05T13:17:15.861Z,93633.39
2019-05-05T13:19:55.670Z,93633.39
2019-05-05T13:23:01.616Z,93638.66
2019-05-05T13:25:58.469Z,93623.49
2019-05-05T13:28:28.434Z,93620.41
2019-05-05T13:31:00.037Z,93614.67
2019-05-05T13:33:33.608Z,93622.52
2019-05-05T13:36:05.107Z,93614.52
2019-05-05T13:38:36.759Z,93617.78
2019-05-05T13:41:08.424Z,93605.02
2019-05-05T13:43:40.397Z,93609.24
2019-05-05T13:46:36.927Z,93602.98
2019-05-05T13:49:46.358Z,93612.27
2019-05-05T13:52:18.272Z,93613.67
2019-05-05T13:54:50.227Z,93612.22
2019-05-05T13:57:21.989Z,93609.38
2019-05-05T13:59:54.600Z,93601.08
2019-05-05T14:02:26.590Z,93594.61
2019-05-05T14:04:58.512Z,93614.25
2019-05-05T14:07:30.352Z,93613.09
2019-05-05T14:10:03.788Z,93604.75
2019-05-05T14:12:36.483Z,93605.42
2019-05-05T14:15:09.796Z,93611.69
2019-05-05T14:17:43.943Z,93603.88
2019-05-05T14:20:16.328Z,93607.53
2019-05-05T14:22:47.944Z,93612.04
2019-05-05T14:25:24.695Z,93609.97
2019-05-05T14:27:56.337Z,93622.59
2019-05-05T14:30:49.862Z,93608.27
2019-05-05T14:33:25.858Z,93618.79
2019-05-05T14:36:13.686Z,93617.16
2019-05-05T14:38:51.045Z,93609.35
2019-05-05T14:41:22.640Z,93624.59
2019-05-05T14:43:56.563Z,93622.95
2019-05-05T14:46:28.263Z,93627.11
2019-05-05T14:48:59.946Z,93635.36
2019-05-05T14:51:34.021Z,93637.39
2019-05-05T14:54:10.814Z,93633.70
2019-05-05T14:56:44.062Z,93628.86
2019-05-05T14:59:16.058Z,93637.98
2019-05-05T15:01:47.961Z,93640.02
2019-05-05T15:04:20.853Z,93639.05
2019-05-05T15:07:30.094Z,93639.17
2019-05-05T15:10:36.569Z,93641.34
2019-05-05T15:13:10.074Z,93647.49
2019-05-05T15:15:42.071Z,93640.42
2019-05-05T15:18:14.653Z,93636.31
2019-05-05T15:20:46.629Z,93643.20
2019-05-05T15:23:18.484Z,93639.69
2019-05-05T15:25:50.215Z,93633.14
2019-05-05T15:28:21.931Z,93629.90
2019-05-05T15:30:54.504Z,93635.86
2019-05-05T15:33:26.587Z,93633.45
2019-05-05T15:35:58.408Z,93633.45
2019-05-05T15:38:30.325Z,93630.77
2019-05-05T15:41:03.880Z,93632.95
2019-05-05T15:43:35.424Z,93633.28
2019-05-05T15:46:07.347Z,93634.55
2019-05-05T15:48:39.276Z,93636.44
2019-05-05T15:51:10.931Z,93633.91
2019-05-05T15:53:42.487Z,93632.81
2019-05-05T15:56:14.399Z,93641.09
2019-05-05T15:58:46.242Z,93645.69
2019-05-05T16:01:18.127Z,93645.90
2019-05-05T16:03:49.757Z,93658.25
2019-05-05T16:06:23.636Z,93662.77
2019-05-05T16:08:56.672Z,93674.34
2019-05-05T16:11:28.841Z,93684.26
2019-05-05T16:14:01.213Z,93687.94
2019-05-05T16:16:57.912Z,93694.97
2019-05-05T16:19:55.082Z,93697.23
2019-05-05T16:22:46.183Z,93700.38
2019-05-05T16:25:17.851Z,93703.80
2019-05-05T16:27:49.723Z,93703.55
2019-05-05T16:30:23.562Z,93705.09
2019-05-05T16:32:55.573Z,93708.30
2019-05-05T16:35:27.396Z,93708.30
2019-05-05T16:37:58.944Z,93708.75
2019-05-05T16:40:30.599Z,93708.68
2019-05-05T16:43:01.999Z,93703.63
2019-05-05T16:45:34.138Z,93705.50
2019-05-05T16:48:05.872Z,93705.16
2019-05-05T16:50:37.724Z,93708.76
2019-05-05T16:53:11.078Z,93703.27
2019-05-05T16:55:50.401Z,93712.87
2019-05-05T16:58:23.973Z,93713.61
2019-05-05T17:00:55.850Z,93719.87
2019-05-05T17:03:27.718Z,93723.67
2019-05-05T17:05:59.657Z,93721.20
2019-05-05T17:08:31.362Z,93730.06
2019-05-05T17:11:03.197Z,93731.27
2019-05-05T17:13:44.042Z,93728.70
2019-05-05T17:16:28.882Z,93733.33
2019-05-05T17:19:19.753Z,93732.53
2019-05-05T17:22:09.214Z,93734.07
2019-05-05T17:24:40.911Z,93733.52
2019-05-05T17:27:13.911Z,93728.23
2019-05-05T17:29:44.755Z,93729.37
2019-05-05T17:32:16.194Z,93723.88
2019-05-05T17:34:47.851Z,93728.72
2019-05-05T17:37:19.865Z,93732.41
2019-05-05T17:39:57.979Z,93738.08
2019-05-05T17:42:38.911Z,93734.36
2019-05-05T17:45:23.921Z,93733.39
2019-05-05T17:48:09.633Z,93738.84
2019-05-05T17:50:59.179Z,93738.78
2019-05-05T17:53:48.857Z,93745.25
2019-05-05T17:56:20.873Z,93743.39
2019-05-05T17:58:53.802Z,93749.66
2019-05-05T18:01:25.735Z,93753.66
2019-05-05T18:03:57.480Z,93756.55
2019-05-05T18:06:39.750Z,93761.10
2019-05-05T18:09:39.238Z,93761.66
2019-05-05T18:12:29.850Z,93765.66
2019-05-05T18:15:04.595Z,93762.02
2019-05-05T18:17:37.132Z,93773.13
2019-05-05T18:20:09.099Z,93766.95
2019-05-05T18:22:40.444Z,93774.87
2019-05-05T18:25:11.962Z,93775.92
2019-05-05T18:27:43.932Z,93781.30
2019-05-05T18:30:16.173Z,93779.97
2019-05-05T18:32:48.378Z,93780.39
2019-05-05T18:35:20.162Z,93788.52
2019-05-05T18:37:54.327Z,93782.05
2019-05-05T18:40:25.799Z,93789.77
2019-05-05T18:42:59.116Z,93789.73
2019-05-05T18:45:30.542Z,93793.61
2019-05-05T18:48:04.399Z,93789.02
2019-05-05T18:50:36.162Z,93792.52
2019-05-05T18:53:08.069Z,93789.02
2019-05-05T18:55:39.522Z,93785.44
2019-05-05T18:58:12.247Z,93785.94
2019-05-05T19:01:03.802Z,93789.20
2019-05-05T19:03:54.510Z,93799.70
2019-05-05T19:06:44.045Z,93799.79
2019-05-05T19:09:19.999Z,93805.18
2019-05-05T19:11:52.020Z,93803.70
2019-05-05T19:14:24.335Z,93801.04
2019-05-05T19:16:56.174Z,93796.20
2019-05-05T19:19:27.742Z,93803.08
2019-05-05T19:22:05.523Z,93791.28
2019-05-05T19:24:37.104Z,93797.48
2019-05-05T19:27:09.241Z,93794.06
2019-05-05T19:29:41.104Z,93802.41
2019-05-05T19:32:13.094Z,93804.53
2019-05-05T19:34:45.034Z,93808.25
2019-05-05T19:37:16.685Z,93802.41
2019-05-05T19:39:48.404Z,93806.47
2019-05-05T19:42:20.072Z,93810.84
2019-05-05T19:44:51.768Z,93810.28
2019-05-05T19:47:24.635Z,93817.20
2019-05-05T19:50:14.411Z,93822.56
2019-05-05T19:52:47.214Z,93820.97
2019-05-05T19:55:19.049Z,93826.31
2019-05-05T19:57:51.160Z,93828.27
2019-05-05T20:00:23.433Z,93828.30
2019-05-05T20:03:04.319Z,93831.94
2019-05-05T20:05:30.248Z,93830.50
2019-05-05T20:08:03.909Z,93832.16
2019-05-05T20:10:35.522Z,93839.86
2019-05-05T20:13:07.079Z,93830.85
2019-05-05T20:15:48.152Z,93825.23
2019-05-05T20:18:21.069Z,93823.27
2019-05-05T20:21:03.623Z,93824.36
2019-05-05T20:23:24.901Z,93834.88
2019-05-05T20:25:56.872Z,93831.92
2019-05-05T20:28:28.713Z,93822.73
2019-05-05T20:31:00.626Z,93827.32
2019-05-05T20:33:41.480Z,93831.65
2019-05-05T20:36:16.424Z,93830.75
2019-05-05T20:38:50.249Z,93831.14
2019-05-05T20:41:24.918Z,93830.53
2019-05-05T20:43:56.935Z,93822.66
2019-05-05T20:46:28.526Z,93823.86
2019-05-05T20:49:00.130Z,93825.02
2019-05-05T20:51:33.841Z,93822.16
2019-05-05T20:54:05.366Z,93819.83
2019-05-05T20:56:37.072Z,93821.30
2019-05-05T20:59:08.905Z,93813.61
2019-05-05T21:01:40.725Z,93818.13
2019-05-05T21:04:14.096Z,93807.80
2019-05-05T21:06:46.937Z,93813.07
2019-05-05T21:09:18.394Z,93806.05
2019-05-05T21:11:50.165Z,93808.38
2019-05-05T21:14:32.008Z,93819.24
2019-05-05T21:16:56.563Z,93817.55
2019-05-05T21:19:28.294Z,93820.91
2019-05-05T21:22:04.103Z,93830.13
2019-05-05T21:24:35.853Z,93828.19
2019-05-05T21:27:07.597Z,93825.70
2019-05-05T21:29:42.234Z,93828.19
2019-05-05T21:32:13.792Z,93830.84
2019-05-05T21:34:45.636Z,93827.18
2019-05-05T21:37:17.376Z,93825.84
2019-05-05T21:39:49.394Z,93828.95
2019-05-05T21:42:21.320Z,93828.62
2019-05-05T21:44:53.888Z,93825.65
2019-05-05T21:47:25.808Z,93821.47
2019-05-05T21:49:57.296Z,93830.36
2019-05-05T21:52:41.282Z,93824.39
2019-05-05T21:55:33.894Z,93822.11
2019-05-05T21:58:18.412Z,93828.89
2019-05-05T22:01:04.670Z,93829.21
2019-05-05T22:03:38.543Z,93824.98
2019-05-05T22:06:10.238Z,93821.73
2019-05-05T22:08:41.978Z,93821.73
2019-05-05T22:11:14.668Z,93822.81
2019-05-05T22:13:47.027Z,93820.35
2019-05-05T22:16:18.914Z,93820.36
2019-05-05T22:18:50.607Z,93816.75
2019-05-05T22:21:31.412Z,93819.92
2019-05-05T22:24:19.728Z,93825.55
2019-05-05T22:26:51.430Z,93823.97
2019-05-05T22:29:24.950Z,93821.22
2019-05-05T22:31:56.864Z,93825.14
2019-05-05T22:34:29.143Z,93818.00
2019-05-05T22:37:00.962Z,93828.64
2019-05-05T22:39:33.806Z,93823.69
2019-05-05T22:42:05.490Z,93825.34
2019-05-05T22:44:37.263Z,93813.47
2019-05-05T22:47:09.138Z,93815.89
2019-05-05T22:49:41.180Z,93808.69
2019-05-05T22:52:14.458Z,93802.81
2019-05-05T22:54:46.051Z,93811.34
2019-05-05T22:57:17.868Z,93811.13
2019-05-05T22:59:49.729Z,93815.19
2019-05-05T23:02:24.461Z,93811.98
2019-05-05T23:05:11.923Z,93804.80
2019-05-05T23:07:43.901Z,93808.98
2019-05-05T23:10:16.090Z,93809.31
2019-05-05T23:12:47.729Z,93813.18
2019-05-05T23:15:19.751Z,93811.84
2019-05-05T23:18:06.682Z,93812.31
2019-05-05T23:21:19.489Z,93813.90
2019-05-05T23:24:05.407Z,93811.02
2019-05-05T23:26:38.731Z,93809.64
2019-05-05T23:29:09.175Z,93806.98
2019-05-05T23:31:40.798Z,93811.96
2019-05-05T23:34:14.567Z,93820.89
2019-05-05T23:36:46.159Z,93821.87
2019-05-05T23:39:17.903Z,93821.48
2019-05-05T23:41:49.645Z,93827.28
2019-05-05T23:44:21.456Z,93824.22
2019-05-05T23:46:53.887Z,93819.48
2019-05-05T23:49:25.640Z,93821.69
2019-05-05T23:51:57.558Z,93817.36
2019-05-05T23:54:29.144Z,93813.57
2019-05-05T23:57:00.843Z,93816.64
2019-05-05T23:59:32.509Z,93819.66
